createdAt,value
2022-10-21T00:00:26.724Z,13.93
2022-10-21T00:03:29.513Z,13.88
2022-10-21T00:06:32.133Z,13.80
2022-10-21T00:09:36.102Z,13.71
2022-10-21T00:12:39.462Z,13.65
2022-10-21T00:15:42.409Z,13.59
2022-10-21T00:18:46.297Z,13.60
2022-10-21T00:21:49.315Z,13.60
2022-10-21T00:24:53.510Z,13.61
2022-10-21T00:28:00.757Z,13.62
2022-10-21T00:31:03.783Z,13.66
2022-10-21T00:34:06.448Z,13.66
2022-10-21T00:37:09.071Z,13.68
2022-10-21T00:40:13.160Z,13.59
2022-10-21T00:43:15.926Z,13.56
2022-10-21T00:46:18.665Z,13.52
2022-10-21T00:49:26.216Z,13.43
2022-10-21T00:52:32.898Z,13.39
2022-10-21T00:55:40.659Z,13.39
2022-10-21T00:58:43.362Z,13.35
2022-10-21T01:01:46.125Z,13.36
2022-10-21T01:04:53.122Z,13.34
2022-10-21T01:07:55.970Z,13.32
2022-10-21T01:11:02.152Z,13.31
2022-10-21T01:14:20.797Z,13.30
2022-10-21T01:17:44.949Z,13.29
2022-10-21T01:21:08.203Z,13.28
2022-10-21T01:24:30.708Z,13.25
2022-10-21T01:27:51.457Z,13.27
2022-10-21T01:30:58.264Z,13.29
2022-10-21T01:34:09.496Z,13.31
2022-10-21T01:37:21.739Z,13.30
2022-10-21T01:40:32.404Z,13.28
2022-10-21T01:43:42.376Z,13.23
2022-10-21T01:46:50.067Z,13.18
2022-10-21T01:49:57.286Z,13.15
2022-10-21T01:53:04.317Z,13.18
2022-10-21T01:56:10.048Z,13.22
2022-10-21T01:59:14.552Z,13.24
2022-10-21T02:02:20.741Z,13.30
2022-10-21T02:05:26.850Z,13.32
2022-10-21T02:08:32.122Z,13.37
2022-10-21T02:11:38.479Z,13.40
2022-10-21T02:14:45.008Z,13.52
2022-10-21T02:17:52.955Z,13.67
2022-10-21T02:20:58.128Z,13.72
2022-10-21T02:24:06.142Z,13.78
2022-10-21T02:27:09.036Z,13.82
2022-10-21T02:30:12.005Z,13.86
2022-10-21T02:33:24.820Z,13.95
2022-10-21T02:36:37.664Z,13.98
2022-10-21T02:39:47.565Z,13.98
2022-10-21T02:42:55.739Z,13.99
2022-10-21T02:46:02.585Z,13.99
2022-10-21T02:49:06.965Z,14.05
2022-10-21T02:52:09.574Z,14.09
2022-10-21T02:55:12.187Z,14.12
2022-10-21T02:58:14.797Z,14.15
2022-10-21T03:01:17.615Z,14.16
2022-10-21T03:04:22.658Z,14.16
2022-10-21T03:07:25.326Z,14.17
2022-10-21T03:10:27.946Z,14.19
2022-10-21T03:13:30.586Z,14.23
2022-10-21T03:16:33.205Z,14.24
2022-10-21T03:19:37.562Z,14.29
2022-10-21T03:22:40.357Z,14.29
2022-10-21T03:25:43.106Z,14.34
2022-10-21T03:28:45.702Z,14.37
2022-10-21T03:31:48.298Z,14.45
2022-10-21T03:34:52.336Z,14.45
2022-10-21T03:37:55.305Z,14.46
2022-10-21T03:40:58.357Z,14.44
2022-10-21T03:44:00.955Z,14.46
2022-10-21T03:47:03.633Z,14.48
2022-10-21T03:50:11.945Z,14.48
2022-10-21T03:53:30.986Z,14.48
2022-10-21T03:56:39.332Z,14.50
2022-10-21T03:59:41.961Z,14.50
2022-10-21T04:02:44.849Z,14.52
2022-10-21T04:05:49.478Z,14.57
2022-10-21T04:08:52.172Z,14.56
2022-10-21T04:11:54.897Z,14.61
2022-10-21T04:14:57.524Z,14.62
2022-10-21T04:18:00.166Z,14.59
2022-10-21T04:21:04.405Z,14.60
2022-10-21T04:24:07.050Z,14.59
2022-10-21T04:27:09.726Z,14.63
2022-10-21T04:30:12.472Z,14.64
2022-10-21T04:33:15.129Z,14.68
2022-10-21T04:36:19.283Z,14.73
2022-10-21T04:39:22.367Z,14.75
2022-10-21T04:42:25.291Z,14.74
2022-10-21T04:45:27.960Z,14.75
2022-10-21T04:48:30.721Z,14.74
2022-10-21T04:51:34.689Z,14.72
2022-10-21T04:54:37.308Z,14.71
2022-10-21T04:57:41.221Z,14.70
2022-10-21T05:00:44.343Z,14.72
2022-10-21T05:03:47.114Z,14.71
2022-10-21T05:06:51.167Z,14.71
2022-10-21T05:09:53.762Z,14.69
2022-10-21T05:12:56.407Z,14.70
2022-10-21T05:16:00.115Z,14.70
2022-10-21T05:19:02.740Z,14.73
2022-10-21T05:22:06.735Z,14.71
2022-10-21T05:25:10.335Z,14.77
2022-10-21T05:28:13.201Z,14.88
2022-10-21T05:31:15.829Z,15.07
2022-10-21T05:34:18.697Z,15.21
2022-10-21T05:37:22.734Z,15.30
2022-10-21T05:40:25.377Z,15.47
2022-10-21T05:43:28.890Z,15.58
2022-10-21T05:46:31.506Z,15.66
2022-10-21T05:49:34.533Z,15.75
2022-10-21T05:52:39.002Z,15.81
2022-10-21T05:55:41.756Z,15.86
2022-10-21T05:58:44.398Z,15.93
2022-10-21T06:01:47.418Z,15.97
2022-10-21T06:04:50.027Z,15.93
2022-10-21T06:07:54.017Z,15.87
2022-10-21T06:11:03.438Z,15.90
2022-10-21T06:14:06.077Z,15.89
2022-10-21T06:17:08.726Z,15.89
2022-10-21T06:20:11.657Z,15.84
2022-10-21T06:23:16.312Z,15.81
2022-10-21T06:26:18.947Z,15.77
2022-10-21T06:29:21.570Z,15.76
2022-10-21T06:32:24.211Z,15.73
2022-10-21T06:35:27.330Z,15.69
2022-10-21T06:38:32.232Z,15.62
2022-10-21T06:41:34.949Z,15.66
2022-10-21T06:44:37.591Z,15.62
2022-10-21T06:47:40.674Z,15.62
2022-10-21T06:50:43.685Z,15.59
2022-10-21T06:53:49.136Z,15.59
2022-10-21T06:56:51.802Z,15.57
2022-10-21T06:59:54.422Z,15.54
2022-10-21T07:02:57.349Z,15.51
2022-10-21T07:06:00.628Z,15.50
2022-10-21T07:09:05.101Z,15.49
2022-10-21T07:12:08.180Z,15.47
2022-10-21T07:15:11.709Z,15.48
2022-10-21T07:18:14.333Z,15.49
2022-10-21T07:21:19.534Z,15.50
2022-10-21T07:24:23.568Z,15.49
2022-10-21T07:27:26.614Z,15.55
2022-10-21T07:30:29.222Z,15.62
2022-10-21T07:33:32.571Z,15.60
2022-10-21T07:36:38.347Z,15.60
2022-10-21T07:39:42.409Z,15.59
2022-10-21T07:42:45.086Z,15.59
2022-10-21T07:45:47.785Z,15.59
2022-10-21T07:48:51.150Z,15.58
2022-10-21T07:51:54.255Z,15.58
2022-10-21T07:54:58.347Z,15.59
2022-10-21T07:58:01.121Z,15.64
2022-10-21T08:01:07.069Z,15.62
2022-10-21T08:04:11.474Z,15.63
2022-10-21T08:07:14.133Z,15.59
2022-10-21T08:10:18.376Z,15.58
2022-10-21T08:13:21.562Z,15.65
2022-10-21T08:16:25.041Z,15.61
2022-10-21T08:19:29.684Z,15.61
2022-10-21T08:22:32.425Z,15.63
2022-10-21T08:25:36.590Z,15.66
2022-10-21T08:28:39.285Z,15.70
2022-10-21T08:31:41.937Z,15.69
2022-10-21T08:34:44.937Z,15.70
2022-10-21T08:37:49.813Z,15.70
2022-10-21T08:40:55.712Z,15.73
2022-10-21T08:44:03.746Z,15.70
2022-10-21T08:47:15.317Z,15.71
2022-10-21T08:50:21.576Z,15.70
2022-10-21T08:53:28.869Z,15.69
2022-10-21T08:56:33.445Z,15.67
2022-10-21T08:59:36.048Z,15.68
2022-10-21T09:02:59.087Z,15.67
2022-10-21T09:06:18.483Z,15.68
2022-10-21T09:09:29.490Z,15.72
2022-10-21T09:12:40.358Z,15.71
2022-10-21T09:15:54.951Z,15.71
2022-10-21T09:19:10.920Z,15.71
2022-10-21T09:22:35.966Z,15.75
2022-10-21T09:25:46.881Z,15.81
2022-10-21T09:28:54.924Z,15.90
2022-10-21T09:32:04.035Z,15.98
2022-10-21T09:35:15.268Z,16.00
2022-10-21T09:38:21.823Z,16.00
2022-10-21T09:41:27.413Z,16.10
2022-10-21T09:44:31.451Z,16.11
2022-10-21T09:47:34.053Z,16.15
2022-10-21T09:50:38.573Z,16.23
2022-10-21T09:53:53.700Z,16.30
2022-10-21T09:57:02.800Z,16.32
2022-10-21T10:00:11.176Z,16.31
2022-10-21T10:03:31.888Z,16.31
2022-10-21T10:06:37.133Z,16.36
2022-10-21T10:09:46.684Z,16.42
2022-10-21T10:12:56.927Z,16.49
2022-10-21T10:16:16.051Z,16.51
2022-10-21T10:19:21.321Z,16.51
2022-10-21T10:22:24.807Z,16.53
2022-10-21T10:25:32.337Z,16.53
2022-10-21T10:28:35.172Z,16.55
2022-10-21T10:31:39.894Z,16.56
2022-10-21T10:34:53.134Z,16.55
2022-10-21T10:37:58.406Z,16.62
2022-10-21T10:41:06.350Z,16.71
2022-10-21T10:44:13.012Z,16.72
2022-10-21T10:47:25.409Z,16.74
2022-10-21T10:50:46.777Z,16.75
2022-10-21T10:54:01.216Z,16.77
2022-10-21T10:57:07.710Z,16.83
2022-10-21T11:00:18.378Z,16.85
2022-10-21T11:03:28.857Z,16.90
2022-10-21T11:06:37.604Z,16.92
2022-10-21T11:09:40.805Z,17.00
2022-10-21T11:12:43.418Z,17.06
2022-10-21T11:15:58.900Z,17.13
2022-10-21T11:19:09.318Z,17.16
2022-10-21T11:22:16.378Z,17.30
2022-10-21T11:25:23.910Z,17.41
2022-10-21T11:28:30.077Z,17.46
2022-10-21T11:32:09.766Z,17.54
2022-10-21T11:35:33.169Z,17.59
2022-10-21T11:38:51.642Z,17.63
2022-10-21T11:42:01.228Z,17.69
2022-10-21T11:45:30.523Z,17.73
2022-10-21T11:48:57.361Z,17.75
2022-10-21T11:52:11.069Z,17.81
2022-10-21T11:55:38.593Z,17.78
2022-10-21T11:58:52.746Z,17.78
2022-10-21T12:02:01.701Z,17.75
2022-10-21T12:05:12.955Z,17.77
2022-10-21T12:08:21.592Z,17.79
2022-10-21T12:11:28.895Z,17.74
2022-10-21T12:14:35.626Z,17.66
2022-10-21T12:17:38.458Z,17.60
2022-10-21T12:20:41.565Z,17.63
2022-10-21T12:23:48.477Z,17.58
2022-10-21T12:26:57.849Z,17.55
2022-10-21T12:30:08.455Z,17.58
2022-10-21T12:33:18.949Z,17.55
2022-10-21T12:36:40.754Z,17.53
2022-10-21T12:39:52.386Z,17.52
2022-10-21T12:43:00.088Z,17.46
2022-10-21T12:46:05.665Z,17.45
2022-10-21T12:49:20.603Z,17.41
2022-10-21T12:52:24.729Z,17.35
2022-10-21T12:55:29.097Z,17.28
2022-10-21T12:58:37.577Z,17.30
2022-10-21T13:01:45.041Z,17.29
2022-10-21T13:04:50.098Z,17.29
2022-10-21T13:08:27.186Z,17.27
2022-10-21T13:11:40.887Z,17.30
2022-10-21T13:14:46.274Z,17.33
2022-10-21T13:17:52.271Z,17.34
2022-10-21T13:21:00.284Z,17.38
2022-10-21T13:24:26.193Z,17.39
2022-10-21T13:27:32.132Z,17.41
2022-10-21T13:30:37.248Z,17.43
2022-10-21T13:33:40.961Z,17.42
2022-10-21T13:36:43.946Z,17.42
2022-10-21T13:39:52.695Z,17.39
2022-10-21T13:42:59.658Z,17.36
2022-10-21T13:46:07.715Z,17.30
2022-10-21T13:49:26.998Z,17.25
2022-10-21T13:52:29.859Z,17.26
2022-10-21T13:55:32.479Z,17.29
2022-10-21T13:58:39.978Z,17.23
2022-10-21T14:01:47.126Z,17.25
2022-10-21T14:04:49.949Z,17.27
2022-10-21T14:07:52.621Z,17.27
2022-10-21T14:10:59.820Z,17.32
2022-10-21T14:14:08.113Z,17.35
2022-10-21T14:17:18.211Z,17.34
2022-10-21T14:20:26.289Z,17.36
2022-10-21T14:23:30.626Z,17.29
2022-10-21T14:26:34.253Z,17.35
2022-10-21T14:29:38.566Z,17.33
2022-10-21T14:32:41.809Z,17.33
2022-10-21T14:35:44.697Z,17.28
2022-10-21T14:38:54.755Z,17.29
2022-10-21T14:42:03.901Z,17.29
2022-10-21T14:45:16.076Z,17.25
2022-10-21T14:48:26.002Z,17.26
2022-10-21T14:51:30.455Z,17.21
2022-10-21T14:54:41.619Z,17.22
2022-10-21T14:57:47.498Z,17.27
2022-10-21T15:00:57.025Z,17.23
2022-10-21T15:04:01.663Z,17.19
2022-10-21T15:07:04.326Z,17.17
2022-10-21T15:10:19.488Z,17.21
2022-10-21T15:13:22.549Z,17.16
2022-10-21T15:16:30.498Z,17.11
2022-10-21T15:19:45.571Z,17.09
2022-10-21T15:22:49.593Z,17.14
2022-10-21T15:25:55.038Z,17.15
2022-10-21T15:28:58.053Z,17.27
2022-10-21T15:32:02.584Z,17.20
2022-10-21T15:35:13.529Z,17.13
2022-10-21T15:38:16.118Z,17.19
2022-10-21T15:41:20.977Z,17.09
2022-10-21T15:44:26.495Z,17.09
2022-10-21T15:47:30.764Z,17.07
2022-10-21T15:50:36.515Z,17.05
2022-10-21T15:53:41.050Z,17.00
2022-10-21T15:56:49.668Z,16.99
2022-10-21T15:59:52.640Z,16.91
2022-10-21T16:02:57.402Z,16.87
2022-10-21T16:06:00.013Z,16.81
2022-10-21T16:09:02.691Z,16.78
2022-10-21T16:12:07.104Z,16.79
2022-10-21T16:15:10.723Z,16.76
2022-10-21T16:18:16.884Z,16.73
2022-10-21T16:21:21.855Z,16.77
2022-10-21T16:24:24.499Z,16.75
2022-10-21T16:27:43.388Z,16.71
2022-10-21T16:30:49.708Z,16.76
2022-10-21T16:33:54.052Z,16.75
2022-10-21T16:36:56.914Z,16.72
2022-10-21T16:39:59.976Z,16.71
2022-10-21T16:43:02.634Z,16.72
2022-10-21T16:46:05.379Z,16.70
2022-10-21T16:49:13.581Z,16.64
2022-10-21T16:52:17.370Z,16.60
2022-10-21T16:55:20.330Z,16.63
2022-10-21T16:58:22.986Z,16.66
2022-10-21T17:01:26.321Z,16.67
2022-10-21T17:04:30.355Z,16.66
2022-10-21T17:07:34.050Z,16.61
2022-10-21T17:10:36.769Z,16.57
2022-10-21T17:13:39.409Z,16.54
2022-10-21T17:16:42.194Z,16.56
2022-10-21T17:19:46.171Z,16.51
2022-10-21T17:22:48.859Z,16.50
2022-10-21T17:25:51.604Z,16.47
2022-10-21T17:28:55.509Z,16.50
2022-10-21T17:31:58.117Z,16.50
2022-10-21T17:35:02.126Z,16.50
2022-10-21T17:38:05.165Z,16.50
2022-10-21T17:41:07.818Z,16.51
2022-10-21T17:44:12.182Z,16.57
2022-10-21T17:47:14.864Z,16.55
2022-10-21T17:50:23.401Z,16.53
2022-10-21T17:53:27.051Z,16.51
2022-10-21T17:56:29.758Z,16.46
2022-10-21T17:59:33.456Z,16.46
2022-10-21T18:02:36.473Z,16.46
2022-10-21T18:05:42.907Z,16.47
2022-10-21T18:08:45.790Z,16.46
2022-10-21T18:11:48.586Z,16.50
2022-10-21T18:14:52.303Z,16.44
2022-10-21T18:17:55.330Z,16.40
2022-10-21T18:21:02.647Z,16.40
2022-10-21T18:24:09.869Z,16.38
2022-10-21T18:27:15.023Z,16.35
2022-10-21T18:30:17.883Z,16.27
2022-10-21T18:33:23.243Z,16.26
2022-10-21T18:36:28.450Z,16.22
2022-10-21T18:39:39.897Z,16.17
2022-10-21T18:45:59.982Z,16.10
2022-10-21T18:49:03.799Z,16.07
2022-10-21T18:52:13.186Z,16.11
2022-10-21T18:55:15.930Z,16.13
2022-10-21T18:58:35.702Z,16.09
2022-10-21T19:02:00.778Z,16.04
2022-10-21T19:05:03.434Z,16.05
2022-10-21T19:08:07.537Z,16.12
2022-10-21T19:39:38.707Z,16.20
2022-10-21T19:42:52.485Z,16.27
2022-10-21T19:45:55.279Z,16.21
2022-10-21T19:49:02.251Z,16.24
2022-10-21T19:52:05.154Z,16.23
2022-10-21T19:55:09.812Z,16.25
2022-10-21T19:58:20.517Z,16.24
2022-10-21T20:01:26.292Z,16.28
2022-10-21T20:04:31.353Z,16.27
2022-10-21T20:07:37.410Z,16.27
2022-10-21T20:10:41.689Z,16.28
2022-10-21T20:13:45.910Z,16.29
2022-10-21T20:16:50.042Z,16.31
2022-10-21T20:19:52.729Z,16.32
2022-10-21T20:22:55.392Z,16.38
2022-10-21T20:26:00.185Z,16.46
2022-10-21T20:29:03.117Z,16.53
2022-10-21T20:32:05.840Z,16.64
2022-10-21T20:35:09.670Z,16.69
2022-10-21T20:38:13.824Z,16.67
2022-10-21T20:41:21.797Z,16.69
2022-10-21T20:44:37.040Z,16.68
2022-10-21T20:47:56.399Z,16.76
2022-10-21T20:51:10.962Z,16.82
2022-10-21T20:54:35.324Z,16.89
2022-10-21T20:57:45.634Z,16.92
2022-10-21T21:04:33.959Z,16.83
2022-10-21T21:07:53.346Z,16.77
2022-10-21T21:11:01.025Z,16.79
2022-10-21T21:14:08.075Z,16.72
2022-10-21T21:17:13.270Z,16.69
2022-10-21T21:20:16.390Z,16.78
2022-10-21T21:23:19.425Z,16.72
2022-10-21T21:26:23.730Z,16.66
2022-10-21T21:29:27.972Z,16.65
2022-10-21T21:32:30.646Z,16.58
2022-10-21T21:35:33.255Z,16.56
2022-10-21T21:38:36.734Z,16.54
2022-10-21T21:41:39.950Z,16.54
2022-10-21T21:44:44.018Z,16.40
2022-10-21T21:47:46.903Z,16.39
2022-10-21T21:50:49.819Z,16.27
2022-10-21T21:53:52.569Z,16.23
2022-10-21T21:57:10.328Z,16.13
2022-10-21T22:00:19.658Z,16.10
2022-10-21T22:03:22.442Z,16.08
2022-10-21T22:06:28.318Z,15.96
2022-10-21T22:09:31.242Z,15.83
2022-10-21T22:12:33.885Z,15.75
2022-10-21T22:15:47.938Z,15.69
2022-10-21T22:18:51.571Z,15.62
2022-10-21T22:21:54.181Z,15.60
2022-10-21T22:24:56.864Z,15.52
2022-10-21T22:27:59.506Z,15.48
2022-10-21T22:31:06.717Z,15.51
2022-10-21T22:34:11.897Z,15.47
2022-10-21T22:37:14.812Z,15.41
2022-10-21T22:40:17.459Z,15.34
2022-10-21T22:43:20.157Z,15.29
2022-10-21T22:46:39.678Z,15.29
2022-10-21T22:49:43.627Z,15.24
2022-10-21T22:52:46.245Z,15.21
2022-10-21T22:55:48.905Z,15.13
2022-10-21T22:58:51.496Z,15.15
2022-10-21T23:01:55.516Z,15.09
2022-10-21T23:04:58.110Z,15.08
2022-10-21T23:08:00.865Z,15.05
2022-10-21T23:11:03.469Z,14.97
2022-10-21T23:14:08.662Z,14.88
2022-10-21T23:17:13.050Z,14.86
2022-10-21T23:20:15.790Z,14.84
2022-10-21T23:23:18.433Z,14.83
2022-10-21T23:26:21.084Z,14.80
2022-10-21T23:29:23.796Z,14.71
2022-10-21T23:32:27.768Z,14.69
2022-10-21T23:35:30.843Z,14.69
2022-10-21T23:38:33.464Z,14.66
2022-10-21T23:41:36.093Z,14.67
2022-10-21T23:44:38.681Z,14.59
2022-10-21T23:47:43.081Z,14.54
2022-10-21T23:50:46.378Z,14.53
2022-10-21T23:53:49.265Z,14.54
2022-10-21T23:56:51.890Z,14.52
2022-10-21T23:59:54.555Z,14.53
